<?xml version="1.0" encoding="UTF-8" standalone="no" ?>
<gpx xmlns="http://www.topografix.com/GPX/1/1" xmlns:xsi="http://www.w3.org/2001/XMLSchema-instance" xsi:schemaLocation="http://www.topografix.com/GPX/1/1 http://www.topografix.com/GPX/1/1/gpx.xsd" version="1.1" creator="VisuGPX - https://www.visugpx.com">
  <metadata>
    <name>Vatilieu statues</name>
    <desc><![CDATA[File with points/tracks from Locus Map/3.18.9]]></desc>
  </metadata>
  <trk>
    <name><![CDATA[F38470 Vatilieu statues LT MJC]]></name>
    <trkseg>
      <trkpt lat="45.25617" lon="5.40818">
        <ele>556.47</ele>
        <time>2016-09-20T07:34:55Z</time>
      </trkpt>
      <trkpt lat="45.25638" lon="5.40839">
        <ele>558.59</ele>
        <time>2016-09-20T07:38:25Z</time>
      </trkpt>
      <trkpt lat="45.2566" lon="5.40855">
        <ele>559.35</ele>
        <time>2016-09-20T07:38:36Z</time>
      </trkpt>
      <trkpt lat="45.25659" lon="5.40888">
        <ele>562.4</ele>
        <time>2016-09-20T07:38:58Z</time>
      </trkpt>
      <trkpt lat="45.25653" lon="5.40919">
        <ele>565.21</ele>
        <time>2016-09-20T07:39:21Z</time>
      </trkpt>
      <trkpt lat="45.25638" lon="5.40943">
        <ele>567.31</ele>
        <time>2016-09-20T07:39:45Z</time>
      </trkpt>
      <trkpt lat="45.25632" lon="5.40975">
        <ele>569.04</ele>
        <time>2016-09-20T07:40:10Z</time>
      </trkpt>
      <trkpt lat="45.25624" lon="5.41004">
        <ele>570.92</ele>
        <time>2016-09-20T07:40:35Z</time>
      </trkpt>
      <trkpt lat="45.25613" lon="5.41033">
        <ele>572.67</ele>
        <time>2016-09-20T07:42:19Z</time>
      </trkpt>
      <trkpt lat="45.25612" lon="5.41065">
        <ele>574.29</ele>
        <time>2016-09-20T07:42:47Z</time>
      </trkpt>
      <trkpt lat="45.25614" lon="5.41098">
        <ele>576.47</ele>
        <time>2016-09-20T07:43:11Z</time>
      </trkpt>
      <trkpt lat="45.25599" lon="5.41123">
        <ele>578.18</ele>
        <time>2016-09-20T07:43:38Z</time>
      </trkpt>
      <trkpt lat="45.25605" lon="5.41155">
        <ele>581.06</ele>
        <time>2016-09-20T07:47:15Z</time>
      </trkpt>
      <trkpt lat="45.25598" lon="5.41187">
        <ele>583.17</ele>
        <time>2016-09-20T07:47:47Z</time>
      </trkpt>
      <trkpt lat="45.25591" lon="5.41218">
        <ele>585.19</ele>
        <time>2016-09-20T07:48:10Z</time>
      </trkpt>
      <trkpt lat="45.25585" lon="5.41249">
        <ele>587.06</ele>
        <time>2016-09-20T07:48:43Z</time>
      </trkpt>
      <trkpt lat="45.25595" lon="5.41277">
        <ele>591.2</ele>
        <time>2016-09-20T07:49:07Z</time>
      </trkpt>
      <trkpt lat="45.25589" lon="5.4131">
        <ele>593.28</ele>
        <time>2016-09-20T07:49:35Z</time>
      </trkpt>
      <trkpt lat="45.25587" lon="5.41342">
        <ele>593.5</ele>
        <time>2016-09-20T07:50:08Z</time>
      </trkpt>
      <trkpt lat="45.25601" lon="5.41369">
        <ele>594.63</ele>
        <time>2016-09-20T07:50:33Z</time>
      </trkpt>
      <trkpt lat="45.2561" lon="5.41402">
        <ele>594.11</ele>
        <time>2016-09-20T07:51:01Z</time>
      </trkpt>
      <trkpt lat="45.25628" lon="5.41423">
        <ele>597.07</ele>
        <time>2016-09-20T07:51:33Z</time>
      </trkpt>
      <trkpt lat="45.25643" lon="5.41446">
        <ele>599.23</ele>
        <time>2016-09-20T07:52:22Z</time>
      </trkpt>
      <trkpt lat="45.25662" lon="5.41467">
        <ele>601.33</ele>
        <time>2016-09-20T07:52:59Z</time>
      </trkpt>
      <trkpt lat="45.25676" lon="5.41497">
        <ele>600.97</ele>
        <time>2016-09-20T07:53:14Z</time>
      </trkpt>
      <trkpt lat="45.25676" lon="5.41465">
        <ele>602.27</ele>
        <time>2016-09-20T07:55:34Z</time>
      </trkpt>
      <trkpt lat="45.25687" lon="5.41493">
        <ele>601.43</ele>
        <time>2016-09-20T07:58:29Z</time>
      </trkpt>
      <trkpt lat="45.25698" lon="5.41524">
        <ele>600.55</ele>
        <time>2016-09-20T07:59:35Z</time>
      </trkpt>
      <trkpt lat="45.25707" lon="5.41554">
        <ele>599.95</ele>
        <time>2016-09-20T08:00:11Z</time>
      </trkpt>
      <trkpt lat="45.25718" lon="5.41583">
        <ele>600.37</ele>
        <time>2016-09-20T08:00:35Z</time>
      </trkpt>
      <trkpt lat="45.25728" lon="5.41616">
        <ele>602.37</ele>
        <time>2016-09-20T08:01:05Z</time>
      </trkpt>
      <trkpt lat="45.25744" lon="5.41639">
        <ele>605.34</ele>
        <time>2016-09-20T08:01:43Z</time>
      </trkpt>
      <trkpt lat="45.25756" lon="5.41666">
        <ele>607.17</ele>
        <time>2016-09-20T08:04:06Z</time>
      </trkpt>
      <trkpt lat="45.25768" lon="5.41695">
        <ele>607.52</ele>
        <time>2016-09-20T08:04:36Z</time>
      </trkpt>
      <trkpt lat="45.25784" lon="5.41718">
        <ele>607.62</ele>
        <time>2016-09-20T08:04:51Z</time>
      </trkpt>
      <trkpt lat="45.25798" lon="5.41743">
        <ele>608.61</ele>
        <time>2016-09-20T08:05:13Z</time>
      </trkpt>
      <trkpt lat="45.2581" lon="5.41771">
        <ele>610.42</ele>
        <time>2016-09-20T08:05:44Z</time>
      </trkpt>
      <trkpt lat="45.25825" lon="5.41796">
        <ele>612.96</ele>
        <time>2016-09-20T08:09:13Z</time>
      </trkpt>
      <trkpt lat="45.2584" lon="5.41821">
        <ele>615.62</ele>
        <time>2016-09-20T08:09:42Z</time>
      </trkpt>
      <trkpt lat="45.25855" lon="5.41846">
        <ele>617.91</ele>
        <time>2016-09-20T08:10:06Z</time>
      </trkpt>
      <trkpt lat="45.26047" lon="5.42286">
        <ele>662.36</ele>
        <time>2016-09-20T08:29:43Z</time>
      </trkpt>
      <trkpt lat="45.26062" lon="5.42311">
        <ele>664.58</ele>
        <time>2016-09-20T08:34:18Z</time>
      </trkpt>
      <trkpt lat="45.26072" lon="5.4234">
        <ele>666.49</ele>
        <time>2016-09-20T08:34:35Z</time>
      </trkpt>
      <trkpt lat="45.26083" lon="5.42368">
        <ele>667.75</ele>
        <time>2016-09-20T08:34:57Z</time>
      </trkpt>
      <trkpt lat="45.26093" lon="5.42397">
        <ele>668.35</ele>
        <time>2016-09-20T08:35:18Z</time>
      </trkpt>
      <trkpt lat="45.26106" lon="5.42423">
        <ele>669.43</ele>
        <time>2016-09-20T08:35:40Z</time>
      </trkpt>
      <trkpt lat="45.26116" lon="5.42453">
        <ele>669.77</ele>
        <time>2016-09-20T08:36:25Z</time>
      </trkpt>
      <trkpt lat="45.2613" lon="5.4248">
        <ele>670.71</ele>
        <time>2016-09-20T08:36:42Z</time>
      </trkpt>
      <trkpt lat="45.26144" lon="5.42505">
        <ele>672.11</ele>
        <time>2016-09-20T08:49:56Z</time>
      </trkpt>
      <trkpt lat="45.26162" lon="5.42528">
        <ele>674.4</ele>
        <time>2016-09-20T08:50:21Z</time>
      </trkpt>
      <trkpt lat="45.26177" lon="5.42553">
        <ele>676.62</ele>
        <time>2016-09-20T08:51:03Z</time>
      </trkpt>
      <trkpt lat="45.26197" lon="5.42569">
        <ele>680.1</ele>
        <time>2016-09-20T08:51:31Z</time>
      </trkpt>
      <trkpt lat="45.26209" lon="5.42596">
        <ele>682.46</ele>
        <time>2016-09-20T08:51:51Z</time>
      </trkpt>
      <trkpt lat="45.26231" lon="5.42607">
        <ele>686.72</ele>
        <time>2016-09-20T08:52:49Z</time>
      </trkpt>
      <trkpt lat="45.26254" lon="5.42615">
        <ele>689.93</ele>
        <time>2016-09-20T08:53:07Z</time>
      </trkpt>
      <trkpt lat="45.26279" lon="5.42625">
        <ele>691.18</ele>
        <time>2016-09-20T08:53:44Z</time>
      </trkpt>
      <trkpt lat="45.26304" lon="5.42634">
        <ele>691.11</ele>
        <time>2016-09-20T08:58:17Z</time>
      </trkpt>
      <trkpt lat="45.26328" lon="5.42633">
        <ele>690.54</ele>
        <time>2016-09-20T08:58:27Z</time>
      </trkpt>
      <trkpt lat="45.26351" lon="5.4263">
        <ele>689.92</ele>
        <time>2016-09-20T08:58:44Z</time>
      </trkpt>
      <trkpt lat="45.26373" lon="5.42617">
        <ele>688.33</ele>
        <time>2016-09-20T08:59:05Z</time>
      </trkpt>
      <trkpt lat="45.26395" lon="5.42629">
        <ele>688.39</ele>
        <time>2016-09-20T08:59:27Z</time>
      </trkpt>
      <trkpt lat="45.26417" lon="5.42641">
        <ele>687.8</ele>
        <time>2016-09-20T08:59:48Z</time>
      </trkpt>
      <trkpt lat="45.2644" lon="5.42647">
        <ele>686.43</ele>
        <time>2016-09-20T09:01:33Z</time>
      </trkpt>
      <trkpt lat="45.26455" lon="5.42673">
        <ele>685.5</ele>
        <time>2016-09-20T09:02:22Z</time>
      </trkpt>
      <trkpt lat="45.26477" lon="5.42675">
        <ele>684.39</ele>
        <time>2016-09-20T09:04:40Z</time>
      </trkpt>
      <trkpt lat="45.26501" lon="5.42676">
        <ele>685.01</ele>
        <time>2016-09-20T09:07:10Z</time>
      </trkpt>
      <trkpt lat="45.26523" lon="5.42674">
        <ele>688.67</ele>
        <time>2016-09-20T09:07:31Z</time>
      </trkpt>
      <trkpt lat="45.26548" lon="5.42673">
        <ele>694.62</ele>
        <time>2016-09-20T09:07:41Z</time>
      </trkpt>
      <trkpt lat="45.26571" lon="5.42676">
        <ele>699.58</ele>
        <time>2016-09-20T09:07:56Z</time>
      </trkpt>
      <trkpt lat="45.26595" lon="5.42677">
        <ele>701.65</ele>
        <time>2016-09-20T09:08:43Z</time>
      </trkpt>
      <trkpt lat="45.26615" lon="5.42662">
        <ele>701.29</ele>
        <time>2016-09-20T09:10:04Z</time>
      </trkpt>
      <trkpt lat="45.26637" lon="5.42654">
        <ele>699.65</ele>
        <time>2016-09-20T09:10:31Z</time>
      </trkpt>
      <trkpt lat="45.26661" lon="5.42646">
        <ele>697.08</ele>
        <time>2016-09-20T09:11:21Z</time>
      </trkpt>
      <trkpt lat="45.26684" lon="5.42648">
        <ele>694.35</ele>
        <time>2016-09-20T09:11:33Z</time>
      </trkpt>
      <trkpt lat="45.26709" lon="5.42645">
        <ele>690.19</ele>
        <time>2016-09-20T09:12:22Z</time>
      </trkpt>
      <trkpt lat="45.2673" lon="5.42661">
        <ele>686.11</ele>
        <time>2016-09-20T09:14:23Z</time>
      </trkpt>
      <trkpt lat="45.26747" lon="5.42682">
        <ele>680.78</ele>
        <time>2016-09-20T09:15:02Z</time>
      </trkpt>
      <trkpt lat="45.2677" lon="5.42702">
        <ele>671.87</ele>
        <time>2016-09-20T09:16:28Z</time>
      </trkpt>
      <trkpt lat="45.26791" lon="5.42718">
        <ele>663.58</ele>
        <time>2016-09-20T09:16:38Z</time>
      </trkpt>
      <trkpt lat="45.268" lon="5.42754">
        <ele>657.14</ele>
        <time>2016-09-20T09:17:46Z</time>
      </trkpt>
      <trkpt lat="45.26821" lon="5.42773">
        <ele>650.47</ele>
        <time>2016-09-20T09:21:56Z</time>
      </trkpt>
      <trkpt lat="45.26844" lon="5.42767">
        <ele>646.18</ele>
        <time>2016-09-20T09:22:10Z</time>
      </trkpt>
      <trkpt lat="45.26867" lon="5.4276">
        <ele>642.38</ele>
        <time>2016-09-20T09:23:20Z</time>
      </trkpt>
      <trkpt lat="45.26886" lon="5.42743">
        <ele>639.77</ele>
        <time>2016-09-20T09:23:40Z</time>
      </trkpt>
      <trkpt lat="45.26898" lon="5.42715">
        <ele>637.27</ele>
        <time>2016-09-20T09:24:01Z</time>
      </trkpt>
      <trkpt lat="45.26915" lon="5.42694">
        <ele>632.54</ele>
        <time>2016-09-20T09:24:10Z</time>
      </trkpt>
      <trkpt lat="45.26929" lon="5.42669">
        <ele>628.78</ele>
        <time>2016-09-20T09:24:53Z</time>
      </trkpt>
      <trkpt lat="45.26927" lon="5.42636">
        <ele>628.9</ele>
        <time>2016-09-20T09:27:09Z</time>
      </trkpt>
      <trkpt lat="45.26919" lon="5.42606">
        <ele>629.46</ele>
        <time>2016-09-20T09:27:23Z</time>
      </trkpt>
      <trkpt lat="45.2692" lon="5.42574">
        <ele>628.44</ele>
        <time>2016-09-20T09:27:42Z</time>
      </trkpt>
      <trkpt lat="45.26924" lon="5.42541">
        <ele>627.57</ele>
        <time>2016-09-20T09:28:20Z</time>
      </trkpt>
      <trkpt lat="45.26939" lon="5.42512">
        <ele>627.7</ele>
        <time>2016-09-20T09:31:14Z</time>
      </trkpt>
      <trkpt lat="45.2696" lon="5.42504">
        <ele>632.16</ele>
        <time>2016-09-20T09:31:25Z</time>
      </trkpt>
      <trkpt lat="45.26979" lon="5.42484">
        <ele>635.58</ele>
        <time>2016-09-20T09:31:43Z</time>
      </trkpt>
      <trkpt lat="45.26996" lon="5.42463">
        <ele>636.93</ele>
        <time>2016-09-20T09:32:05Z</time>
      </trkpt>
      <trkpt lat="45.27012" lon="5.42438">
        <ele>636.61</ele>
        <time>2016-09-20T09:32:40Z</time>
      </trkpt>
      <trkpt lat="45.27027" lon="5.42412">
        <ele>637.41</ele>
        <time>2016-09-20T09:32:54Z</time>
      </trkpt>
      <trkpt lat="45.27042" lon="5.42388">
        <ele>640.27</ele>
        <time>2016-09-20T09:33:13Z</time>
      </trkpt>
      <trkpt lat="45.27054" lon="5.42359">
        <ele>639.71</ele>
        <time>2016-09-20T09:33:30Z</time>
      </trkpt>
      <trkpt lat="45.27065" lon="5.4233">
        <ele>637.07</ele>
        <time>2016-09-20T09:33:51Z</time>
      </trkpt>
      <trkpt lat="45.27085" lon="5.42315">
        <ele>638.62</ele>
        <time>2016-09-20T09:34:16Z</time>
      </trkpt>
      <trkpt lat="45.27105" lon="5.42298">
        <ele>637.16</ele>
        <time>2016-09-20T09:34:48Z</time>
      </trkpt>
      <trkpt lat="45.27128" lon="5.42293">
        <ele>640.24</ele>
        <time>2016-09-20T09:35:15Z</time>
      </trkpt>
      <trkpt lat="45.27152" lon="5.42295">
        <ele>644.67</ele>
        <time>2016-09-20T09:35:29Z</time>
      </trkpt>
      <trkpt lat="45.27175" lon="5.42304">
        <ele>650.38</ele>
        <time>2016-09-20T09:35:45Z</time>
      </trkpt>
      <trkpt lat="45.27196" lon="5.42291">
        <ele>646.52</ele>
        <time>2016-09-20T09:36:05Z</time>
      </trkpt>
      <trkpt lat="45.2722" lon="5.42293">
        <ele>647.08</ele>
        <time>2016-09-20T09:36:32Z</time>
      </trkpt>
      <trkpt lat="45.27243" lon="5.42294">
        <ele>647.91</ele>
        <time>2016-09-20T09:36:52Z</time>
      </trkpt>
      <trkpt lat="45.27265" lon="5.42304">
        <ele>652.77</ele>
        <time>2016-09-20T09:37:21Z</time>
      </trkpt>
      <trkpt lat="45.27285" lon="5.42289">
        <ele>653.4</ele>
        <time>2016-09-20T09:37:41Z</time>
      </trkpt>
      <trkpt lat="45.27305" lon="5.42275">
        <ele>655.32</ele>
        <time>2016-09-20T09:38:37Z</time>
      </trkpt>
      <trkpt lat="45.27327" lon="5.42264">
        <ele>657.86</ele>
        <time>2016-09-20T09:39:06Z</time>
      </trkpt>
      <trkpt lat="45.27337" lon="5.42233">
        <ele>652.28</ele>
        <time>2016-09-20T09:39:36Z</time>
      </trkpt>
      <trkpt lat="45.27362" lon="5.42232">
        <ele>657.7</ele>
        <time>2016-09-20T09:39:57Z</time>
      </trkpt>
      <trkpt lat="45.27385" lon="5.42239">
        <ele>664.09</ele>
        <time>2016-09-20T09:40:14Z</time>
      </trkpt>
      <trkpt lat="45.27403" lon="5.42217">
        <ele>662.58</ele>
        <time>2016-09-20T09:40:40Z</time>
      </trkpt>
      <trkpt lat="45.27404" lon="5.42177">
        <ele>653.54</ele>
        <time>2016-09-20T09:42:28Z</time>
      </trkpt>
      <trkpt lat="45.27429" lon="5.42169">
        <ele>656.91</ele>
        <time>2016-09-20T09:42:41Z</time>
      </trkpt>
      <trkpt lat="45.27448" lon="5.42188">
        <ele>664.75</ele>
        <time>2016-09-20T09:42:45Z</time>
      </trkpt>
      <trkpt lat="45.27471" lon="5.42187">
        <ele>668.05</ele>
        <time>2016-09-20T09:42:58Z</time>
      </trkpt>
      <trkpt lat="45.27492" lon="5.42177">
        <ele>669.55</ele>
        <time>2016-09-20T09:43:16Z</time>
      </trkpt>
      <trkpt lat="45.2751" lon="5.42156">
        <ele>668.88</ele>
        <time>2016-09-20T09:43:42Z</time>
      </trkpt>
      <trkpt lat="45.27535" lon="5.42145">
        <ele>671.75</ele>
        <time>2016-09-20T09:44:05Z</time>
      </trkpt>
      <trkpt lat="45.27553" lon="5.42124">
        <ele>672.09</ele>
        <time>2016-09-20T09:44:27Z</time>
      </trkpt>
      <trkpt lat="45.27575" lon="5.42118">
        <ele>675.66</ele>
        <time>2016-09-20T09:44:49Z</time>
      </trkpt>
      <trkpt lat="45.27586" lon="5.4209">
        <ele>674.44</ele>
        <time>2016-09-20T09:45:12Z</time>
      </trkpt>
      <trkpt lat="45.2761" lon="5.42098">
        <ele>679.33</ele>
        <time>2016-09-20T09:45:26Z</time>
      </trkpt>
      <trkpt lat="45.27633" lon="5.421">
        <ele>682.93</ele>
        <time>2016-09-20T09:45:46Z</time>
      </trkpt>
      <trkpt lat="45.27649" lon="5.42077">
        <ele>682.98</ele>
        <time>2016-09-20T09:46:14Z</time>
      </trkpt>
      <trkpt lat="45.27672" lon="5.42077">
        <ele>686.19</ele>
        <time>2016-09-20T09:46:33Z</time>
      </trkpt>
      <trkpt lat="45.27692" lon="5.4206">
        <ele>687.47</ele>
        <time>2016-09-20T09:47:00Z</time>
      </trkpt>
      <trkpt lat="45.27708" lon="5.42038">
        <ele>687.59</ele>
        <time>2016-09-20T09:47:22Z</time>
      </trkpt>
      <trkpt lat="45.27733" lon="5.42038">
        <ele>690.51</ele>
        <time>2016-09-20T09:47:43Z</time>
      </trkpt>
      <trkpt lat="45.27732" lon="5.42001">
        <ele>687.95</ele>
        <time>2016-09-20T09:47:57Z</time>
      </trkpt>
      <trkpt lat="45.27753" lon="5.41988">
        <ele>690.11</ele>
        <time>2016-09-20T09:48:19Z</time>
      </trkpt>
      <trkpt lat="45.27768" lon="5.41964">
        <ele>692.26</ele>
        <time>2016-09-20T09:49:34Z</time>
      </trkpt>
      <trkpt lat="45.27787" lon="5.41939">
        <ele>695.96</ele>
        <time>2016-09-20T09:49:46Z</time>
      </trkpt>
      <trkpt lat="45.27808" lon="5.41925">
        <ele>699.54</ele>
        <time>2016-09-20T09:50:02Z</time>
      </trkpt>
      <trkpt lat="45.27817" lon="5.41895">
        <ele>703.45</ele>
        <time>2016-09-20T09:54:07Z</time>
      </trkpt>
      <trkpt lat="45.27821" lon="5.4186">
        <ele>708.22</ele>
        <time>2016-09-20T09:54:15Z</time>
      </trkpt>
      <trkpt lat="45.27819" lon="5.41828">
        <ele>711.58</ele>
        <time>2016-09-20T09:54:34Z</time>
      </trkpt>
      <trkpt lat="45.27812" lon="5.41796">
        <ele>713.99</ele>
        <time>2016-09-20T09:54:58Z</time>
      </trkpt>
      <trkpt lat="45.27802" lon="5.41766">
        <ele>715.76</ele>
        <time>2016-09-20T09:56:09Z</time>
      </trkpt>
      <trkpt lat="45.27788" lon="5.41739">
        <ele>717.15</ele>
        <time>2016-09-20T09:56:17Z</time>
      </trkpt>
      <trkpt lat="45.27781" lon="5.41708">
        <ele>719.28</ele>
        <time>2016-09-20T09:56:34Z</time>
      </trkpt>
      <trkpt lat="45.27775" lon="5.41673">
        <ele>721.98</ele>
        <time>2016-09-20T09:57:09Z</time>
      </trkpt>
      <trkpt lat="45.27771" lon="5.4164">
        <ele>723.31</ele>
        <time>2016-09-20T09:57:31Z</time>
      </trkpt>
      <trkpt lat="45.27762" lon="5.41611">
        <ele>724.32</ele>
        <time>2016-09-20T09:58:25Z</time>
      </trkpt>
      <trkpt lat="45.27751" lon="5.41581">
        <ele>725.97</ele>
        <time>2016-09-20T09:58:49Z</time>
      </trkpt>
      <trkpt lat="45.27742" lon="5.41551">
        <ele>727.58</ele>
        <time>2016-09-20T09:59:06Z</time>
      </trkpt>
      <trkpt lat="45.27734" lon="5.41522">
        <ele>729.84</ele>
        <time>2016-09-20T09:59:27Z</time>
      </trkpt>
      <trkpt lat="45.27725" lon="5.41492">
        <ele>734.2</ele>
        <time>2016-09-20T09:59:42Z</time>
      </trkpt>
      <trkpt lat="45.27733" lon="5.41462">
        <ele>737.89</ele>
        <time>2016-09-20T10:00:14Z</time>
      </trkpt>
      <trkpt lat="45.27747" lon="5.41434">
        <ele>741.6</ele>
        <time>2016-09-20T10:00:39Z</time>
      </trkpt>
      <trkpt lat="45.2776" lon="5.41407">
        <ele>746.35</ele>
        <time>2016-09-20T10:01:11Z</time>
      </trkpt>
      <trkpt lat="45.2778" lon="5.41391">
        <ele>749.5</ele>
        <time>2016-09-20T10:01:58Z</time>
      </trkpt>
      <trkpt lat="45.27799" lon="5.41372">
        <ele>753.64</ele>
        <time>2016-09-20T10:02:15Z</time>
      </trkpt>
      <trkpt lat="45.27817" lon="5.41352">
        <ele>758.19</ele>
        <time>2016-09-20T10:02:51Z</time>
      </trkpt>
      <trkpt lat="45.27838" lon="5.41338">
        <ele>760.78</ele>
        <time>2016-09-20T10:03:31Z</time>
      </trkpt>
      <trkpt lat="45.27853" lon="5.41312">
        <ele>766.69</ele>
        <time>2016-09-20T10:04:58Z</time>
      </trkpt>
      <trkpt lat="45.27874" lon="5.41293">
        <ele>770.44</ele>
        <time>2016-09-20T10:05:36Z</time>
      </trkpt>
      <trkpt lat="45.27893" lon="5.41275">
        <ele>772.85</ele>
        <time>2016-09-20T10:05:47Z</time>
      </trkpt>
      <trkpt lat="45.27913" lon="5.41259">
        <ele>772.98</ele>
        <time>2016-09-20T10:06:10Z</time>
      </trkpt>
      <trkpt lat="45.27889" lon="5.41259">
        <ele>774.96</ele>
        <time>2016-09-20T10:11:06Z</time>
      </trkpt>
      <trkpt lat="45.27867" lon="5.41247">
        <ele>777.13</ele>
        <time>2016-09-20T10:11:28Z</time>
      </trkpt>
      <trkpt lat="45.27845" lon="5.41243">
        <ele>778.57</ele>
        <time>2016-09-20T10:11:53Z</time>
      </trkpt>
      <trkpt lat="45.27832" lon="5.41216">
        <ele>776.77</ele>
        <time>2016-09-20T10:12:18Z</time>
      </trkpt>
      <trkpt lat="45.27813" lon="5.41198">
        <ele>774.87</ele>
        <time>2016-09-20T10:12:51Z</time>
      </trkpt>
      <trkpt lat="45.27791" lon="5.41186">
        <ele>774.76</ele>
        <time>2016-09-20T10:13:12Z</time>
      </trkpt>
      <trkpt lat="45.2777" lon="5.41171">
        <ele>775.33</ele>
        <time>2016-09-20T10:13:35Z</time>
      </trkpt>
      <trkpt lat="45.27753" lon="5.41149">
        <ele>775.89</ele>
        <time>2016-09-20T10:14:07Z</time>
      </trkpt>
      <trkpt lat="45.27734" lon="5.4113">
        <ele>776.85</ele>
        <time>2016-09-20T10:14:38Z</time>
      </trkpt>
      <trkpt lat="45.27719" lon="5.41106">
        <ele>777.05</ele>
        <time>2016-09-20T10:15:00Z</time>
      </trkpt>
      <trkpt lat="45.27706" lon="5.41078">
        <ele>776.45</ele>
        <time>2016-09-20T10:15:28Z</time>
      </trkpt>
      <trkpt lat="45.27702" lon="5.41046">
        <ele>774.06</ele>
        <time>2016-09-20T10:16:00Z</time>
      </trkpt>
      <trkpt lat="45.27691" lon="5.41018">
        <ele>773.08</ele>
        <time>2016-09-20T10:16:24Z</time>
      </trkpt>
      <trkpt lat="45.27678" lon="5.40989">
        <ele>771.94</ele>
        <time>2016-09-20T10:16:39Z</time>
      </trkpt>
      <trkpt lat="45.27661" lon="5.40965">
        <ele>770.89</ele>
        <time>2016-09-20T10:17:02Z</time>
      </trkpt>
      <trkpt lat="45.27649" lon="5.40938">
        <ele>768.13</ele>
        <time>2016-09-20T10:17:34Z</time>
      </trkpt>
      <trkpt lat="45.27632" lon="5.40915">
        <ele>767.26</ele>
        <time>2016-09-20T10:17:56Z</time>
      </trkpt>
      <trkpt lat="45.27619" lon="5.40888">
        <ele>765.22</ele>
        <time>2016-09-20T10:18:19Z</time>
      </trkpt>
      <trkpt lat="45.27601" lon="5.40869">
        <ele>764.59</ele>
        <time>2016-09-20T10:18:48Z</time>
      </trkpt>
      <trkpt lat="45.27588" lon="5.4084">
        <ele>761.6</ele>
        <time>2016-09-20T10:19:16Z</time>
      </trkpt>
      <trkpt lat="45.27576" lon="5.4081">
        <ele>759.02</ele>
        <time>2016-09-20T10:19:43Z</time>
      </trkpt>
      <trkpt lat="45.27569" lon="5.40778">
        <ele>757.18</ele>
        <time>2016-09-20T10:20:13Z</time>
      </trkpt>
      <trkpt lat="45.27568" lon="5.40745">
        <ele>755.85</ele>
        <time>2016-09-20T10:20:25Z</time>
      </trkpt>
      <trkpt lat="45.27566" lon="5.40712">
        <ele>755</ele>
        <time>2016-09-20T10:20:46Z</time>
      </trkpt>
      <trkpt lat="45.27564" lon="5.40678">
        <ele>754.43</ele>
        <time>2016-09-20T10:22:11Z</time>
      </trkpt>
      <trkpt lat="45.27556" lon="5.40647">
        <ele>754.49</ele>
        <time>2016-09-20T10:22:42Z</time>
      </trkpt>
      <trkpt lat="45.27554" lon="5.40612">
        <ele>754.18</ele>
        <time>2016-09-20T10:23:22Z</time>
      </trkpt>
      <trkpt lat="45.27544" lon="5.40582">
        <ele>753.02</ele>
        <time>2016-09-20T10:23:53Z</time>
      </trkpt>
      <trkpt lat="45.27541" lon="5.40549">
        <ele>748.98</ele>
        <time>2016-09-20T10:24:19Z</time>
      </trkpt>
      <trkpt lat="45.27538" lon="5.40515">
        <ele>744.07</ele>
        <time>2016-09-20T10:24:33Z</time>
      </trkpt>
      <trkpt lat="45.27529" lon="5.40486">
        <ele>741.17</ele>
        <time>2016-09-20T10:25:01Z</time>
      </trkpt>
      <trkpt lat="45.27519" lon="5.40456">
        <ele>738.47</ele>
        <time>2016-09-20T10:25:13Z</time>
      </trkpt>
      <trkpt lat="45.27514" lon="5.40423">
        <ele>735.73</ele>
        <time>2016-09-20T10:25:34Z</time>
      </trkpt>
      <trkpt lat="45.27507" lon="5.4039">
        <ele>734.09</ele>
        <time>2016-09-20T10:26:00Z</time>
      </trkpt>
      <trkpt lat="45.27495" lon="5.40362">
        <ele>733.19</ele>
        <time>2016-09-20T10:26:50Z</time>
      </trkpt>
      <trkpt lat="45.2749" lon="5.4033">
        <ele>732.64</ele>
        <time>2016-09-20T10:27:08Z</time>
      </trkpt>
      <trkpt lat="45.27485" lon="5.40298">
        <ele>732.26</ele>
        <time>2016-09-20T10:27:51Z</time>
      </trkpt>
      <trkpt lat="45.27471" lon="5.40273">
        <ele>732.24</ele>
        <time>2016-09-20T10:28:46Z</time>
      </trkpt>
      <trkpt lat="45.27467" lon="5.40241">
        <ele>732.78</ele>
        <time>2016-09-20T10:29:04Z</time>
      </trkpt>
      <trkpt lat="45.2747" lon="5.40208">
        <ele>733.55</ele>
        <time>2016-09-20T10:29:28Z</time>
      </trkpt>
      <trkpt lat="45.27465" lon="5.40175">
        <ele>734.04</ele>
        <time>2016-09-20T10:29:58Z</time>
      </trkpt>
      <trkpt lat="45.27468" lon="5.40142">
        <ele>734.01</ele>
        <time>2016-09-20T10:30:18Z</time>
      </trkpt>
      <trkpt lat="45.27479" lon="5.40114">
        <ele>734.98</ele>
        <time>2016-09-20T10:30:41Z</time>
      </trkpt>
      <trkpt lat="45.27487" lon="5.40084">
        <ele>736.85</ele>
        <time>2016-09-20T10:31:05Z</time>
      </trkpt>
      <trkpt lat="45.27493" lon="5.40052">
        <ele>739.69</ele>
        <time>2016-09-20T10:31:26Z</time>
      </trkpt>
      <trkpt lat="45.27512" lon="5.40034">
        <ele>742.7</ele>
        <time>2016-09-20T10:31:50Z</time>
      </trkpt>
      <trkpt lat="45.27525" lon="5.40007">
        <ele>745.69</ele>
        <time>2016-09-20T10:32:19Z</time>
      </trkpt>
      <trkpt lat="45.27537" lon="5.3998">
        <ele>748.32</ele>
        <time>2016-09-20T10:32:44Z</time>
      </trkpt>
      <trkpt lat="45.27544" lon="5.39948">
        <ele>751.52</ele>
        <time>2016-09-20T10:33:17Z</time>
      </trkpt>
      <trkpt lat="45.27544" lon="5.39916">
        <ele>754.27</ele>
        <time>2016-09-20T10:33:42Z</time>
      </trkpt>
      <trkpt lat="45.2753" lon="5.3989">
        <ele>756.04</ele>
        <time>2016-09-20T10:36:31Z</time>
      </trkpt>
      <trkpt lat="45.27515" lon="5.39865">
        <ele>757.37</ele>
        <time>2016-09-20T10:36:54Z</time>
      </trkpt>
      <trkpt lat="45.27501" lon="5.39839">
        <ele>758.71</ele>
        <time>2016-09-20T10:37:29Z</time>
      </trkpt>
      <trkpt lat="45.27486" lon="5.39815">
        <ele>759.71</ele>
        <time>2016-09-20T10:38:15Z</time>
      </trkpt>
      <trkpt lat="45.27469" lon="5.3979">
        <ele>760.91</ele>
        <time>2016-09-20T10:38:37Z</time>
      </trkpt>
      <trkpt lat="45.27454" lon="5.39765">
        <ele>761.59</ele>
        <time>2016-09-20T10:39:00Z</time>
      </trkpt>
      <trkpt lat="45.27431" lon="5.39762">
        <ele>759.61</ele>
        <time>2016-09-20T10:39:24Z</time>
      </trkpt>
      <trkpt lat="45.27409" lon="5.39773">
        <ele>755.59</ele>
        <time>2016-09-20T10:40:57Z</time>
      </trkpt>
      <trkpt lat="45.27386" lon="5.39774">
        <ele>749.84</ele>
        <time>2016-09-20T11:33:20Z</time>
      </trkpt>
      <trkpt lat="45.27363" lon="5.39776">
        <ele>742.72</ele>
        <time>2016-09-20T11:33:42Z</time>
      </trkpt>
      <trkpt lat="45.27341" lon="5.3977">
        <ele>737.8</ele>
        <time>2016-09-20T11:34:11Z</time>
      </trkpt>
      <trkpt lat="45.27322" lon="5.39749">
        <ele>737.01</ele>
        <time>2016-09-20T11:34:25Z</time>
      </trkpt>
      <trkpt lat="45.27303" lon="5.39766">
        <ele>731.13</ele>
        <time>2016-09-20T11:34:51Z</time>
      </trkpt>
      <trkpt lat="45.27281" lon="5.39752">
        <ele>730.56</ele>
        <time>2016-09-20T11:35:08Z</time>
      </trkpt>
      <trkpt lat="45.27259" lon="5.3975">
        <ele>726.77</ele>
        <time>2016-09-20T11:35:36Z</time>
      </trkpt>
      <trkpt lat="45.27239" lon="5.3973">
        <ele>723.73</ele>
        <time>2016-09-20T11:36:05Z</time>
      </trkpt>
      <trkpt lat="45.27216" lon="5.39728">
        <ele>717.67</ele>
        <time>2016-09-20T11:36:30Z</time>
      </trkpt>
      <trkpt lat="45.27192" lon="5.39734">
        <ele>710.8</ele>
        <time>2016-09-20T11:36:52Z</time>
      </trkpt>
      <trkpt lat="45.2717" lon="5.39734">
        <ele>703.75</ele>
        <time>2016-09-20T11:37:13Z</time>
      </trkpt>
      <trkpt lat="45.27148" lon="5.39723">
        <ele>697.69</ele>
        <time>2016-09-20T11:37:35Z</time>
      </trkpt>
      <trkpt lat="45.27139" lon="5.39693">
        <ele>695.86</ele>
        <time>2016-09-20T11:37:58Z</time>
      </trkpt>
      <trkpt lat="45.27131" lon="5.39662">
        <ele>693.12</ele>
        <time>2016-09-20T11:38:18Z</time>
      </trkpt>
      <trkpt lat="45.27113" lon="5.39642">
        <ele>688.55</ele>
        <time>2016-09-20T11:38:49Z</time>
      </trkpt>
      <trkpt lat="45.27094" lon="5.39623">
        <ele>685.32</ele>
        <time>2016-09-20T11:39:17Z</time>
      </trkpt>
      <trkpt lat="45.27074" lon="5.39608">
        <ele>683.42</ele>
        <time>2016-09-20T11:39:43Z</time>
      </trkpt>
      <trkpt lat="45.27048" lon="5.39597">
        <ele>682.75</ele>
        <time>2016-09-20T11:40:07Z</time>
      </trkpt>
      <trkpt lat="45.27024" lon="5.39596">
        <ele>682.39</ele>
        <time>2016-09-20T11:40:41Z</time>
      </trkpt>
      <trkpt lat="45.27002" lon="5.39584">
        <ele>682.09</ele>
        <time>2016-09-20T11:40:58Z</time>
      </trkpt>
      <trkpt lat="45.26982" lon="5.39568">
        <ele>681.39</ele>
        <time>2016-09-20T11:41:22Z</time>
      </trkpt>
      <trkpt lat="45.26962" lon="5.39551">
        <ele>680.8</ele>
        <time>2016-09-20T11:41:45Z</time>
      </trkpt>
      <trkpt lat="45.26942" lon="5.39532">
        <ele>680.72</ele>
        <time>2016-09-20T11:42:07Z</time>
      </trkpt>
      <trkpt lat="45.26926" lon="5.39509">
        <ele>680.93</ele>
        <time>2016-09-20T11:42:34Z</time>
      </trkpt>
      <trkpt lat="45.26918" lon="5.39479">
        <ele>680.1</ele>
        <time>2016-09-20T11:42:55Z</time>
      </trkpt>
      <trkpt lat="45.26903" lon="5.39455">
        <ele>679.04</ele>
        <time>2016-09-20T11:43:18Z</time>
      </trkpt>
      <trkpt lat="45.26882" lon="5.39439">
        <ele>680.17</ele>
        <time>2016-09-20T11:43:54Z</time>
      </trkpt>
      <trkpt lat="45.26862" lon="5.3942">
        <ele>682.31</ele>
        <time>2016-09-20T11:44:12Z</time>
      </trkpt>
      <trkpt lat="45.26844" lon="5.39401">
        <ele>684.22</ele>
        <time>2016-09-20T11:44:43Z</time>
      </trkpt>
      <trkpt lat="45.26826" lon="5.39382">
        <ele>684.72</ele>
        <time>2016-09-20T11:44:58Z</time>
      </trkpt>
      <trkpt lat="45.26803" lon="5.39374">
        <ele>686.42</ele>
        <time>2016-09-20T11:45:15Z</time>
      </trkpt>
      <trkpt lat="45.26782" lon="5.3935">
        <ele>684.85</ele>
        <time>2016-09-20T11:45:38Z</time>
      </trkpt>
      <trkpt lat="45.26763" lon="5.39332">
        <ele>683.4</ele>
        <time>2016-09-20T11:45:55Z</time>
      </trkpt>
      <trkpt lat="45.26739" lon="5.39329">
        <ele>683.48</ele>
        <time>2016-09-20T11:46:14Z</time>
      </trkpt>
      <trkpt lat="45.26716" lon="5.39318">
        <ele>681.47</ele>
        <time>2016-09-20T11:46:37Z</time>
      </trkpt>
      <trkpt lat="45.26691" lon="5.39321">
        <ele>680.01</ele>
        <time>2016-09-20T11:46:53Z</time>
      </trkpt>
      <trkpt lat="45.26669" lon="5.39316">
        <ele>677.98</ele>
        <time>2016-09-20T11:47:23Z</time>
      </trkpt>
      <trkpt lat="45.26647" lon="5.39303">
        <ele>676.16</ele>
        <time>2016-09-20T11:47:46Z</time>
      </trkpt>
      <trkpt lat="45.26628" lon="5.39283">
        <ele>675.19</ele>
        <time>2016-09-20T11:48:05Z</time>
      </trkpt>
      <trkpt lat="45.2661" lon="5.39265">
        <ele>675.58</ele>
        <time>2016-09-20T11:48:28Z</time>
      </trkpt>
      <trkpt lat="45.26587" lon="5.39257">
        <ele>676.06</ele>
        <time>2016-09-20T11:48:52Z</time>
      </trkpt>
      <trkpt lat="45.26564" lon="5.39249">
        <ele>674.48</ele>
        <time>2016-09-20T11:49:28Z</time>
      </trkpt>
      <trkpt lat="45.26541" lon="5.39251">
        <ele>670.92</ele>
        <time>2016-09-20T11:49:47Z</time>
      </trkpt>
      <trkpt lat="45.26518" lon="5.39253">
        <ele>667.2</ele>
        <time>2016-09-20T11:50:05Z</time>
      </trkpt>
      <trkpt lat="45.26494" lon="5.39254">
        <ele>664.74</ele>
        <time>2016-09-20T11:50:23Z</time>
      </trkpt>
      <trkpt lat="45.26472" lon="5.39254">
        <ele>664.05</ele>
        <time>2016-09-20T11:50:44Z</time>
      </trkpt>
      <trkpt lat="45.26448" lon="5.39251">
        <ele>663.78</ele>
        <time>2016-09-20T11:51:06Z</time>
      </trkpt>
      <trkpt lat="45.26425" lon="5.39263">
        <ele>662.77</ele>
        <time>2016-09-20T11:51:30Z</time>
      </trkpt>
      <trkpt lat="45.26402" lon="5.39267">
        <ele>659.93</ele>
        <time>2016-09-20T11:53:00Z</time>
      </trkpt>
      <trkpt lat="45.26378" lon="5.39275">
        <ele>655.72</ele>
        <time>2016-09-20T11:54:08Z</time>
      </trkpt>
      <trkpt lat="45.26356" lon="5.3928">
        <ele>651.56</ele>
        <time>2016-09-20T11:54:27Z</time>
      </trkpt>
      <trkpt lat="45.26333" lon="5.39285">
        <ele>647.68</ele>
        <time>2016-09-20T11:54:41Z</time>
      </trkpt>
      <trkpt lat="45.26314" lon="5.39303">
        <ele>645.39</ele>
        <time>2016-09-20T11:55:07Z</time>
      </trkpt>
      <trkpt lat="45.26295" lon="5.39321">
        <ele>645.72</ele>
        <time>2016-09-20T11:55:20Z</time>
      </trkpt>
      <trkpt lat="45.26275" lon="5.39336">
        <ele>647.22</ele>
        <time>2016-09-20T11:55:40Z</time>
      </trkpt>
      <trkpt lat="45.26253" lon="5.39341">
        <ele>647.37</ele>
        <time>2016-09-20T11:56:20Z</time>
      </trkpt>
      <trkpt lat="45.26232" lon="5.39358">
        <ele>648.15</ele>
        <time>2016-09-20T11:56:40Z</time>
      </trkpt>
      <trkpt lat="45.26211" lon="5.39371">
        <ele>646.91</ele>
        <time>2016-09-20T11:57:06Z</time>
      </trkpt>
      <trkpt lat="45.26196" lon="5.39395">
        <ele>645.17</ele>
        <time>2016-09-20T11:57:28Z</time>
      </trkpt>
      <trkpt lat="45.26174" lon="5.39387">
        <ele>641.48</ele>
        <time>2016-09-20T11:57:49Z</time>
      </trkpt>
      <trkpt lat="45.26154" lon="5.39404">
        <ele>638.12</ele>
        <time>2016-09-20T11:58:10Z</time>
      </trkpt>
      <trkpt lat="45.26139" lon="5.39429">
        <ele>635.64</ele>
        <time>2016-09-20T11:58:28Z</time>
      </trkpt>
      <trkpt lat="45.26121" lon="5.39451">
        <ele>634</ele>
        <time>2016-09-20T11:58:54Z</time>
      </trkpt>
      <trkpt lat="45.26103" lon="5.39473">
        <ele>633.98</ele>
        <time>2016-09-20T11:59:18Z</time>
      </trkpt>
      <trkpt lat="45.26088" lon="5.39496">
        <ele>634.87</ele>
        <time>2016-09-20T11:59:42Z</time>
      </trkpt>
      <trkpt lat="45.26065" lon="5.39504">
        <ele>634.97</ele>
        <time>2016-09-20T12:00:06Z</time>
      </trkpt>
      <trkpt lat="45.26041" lon="5.39489">
        <ele>632.1</ele>
        <time>2016-09-20T12:01:11Z</time>
      </trkpt>
      <trkpt lat="45.26018" lon="5.39489">
        <ele>630.03</ele>
        <time>2016-09-20T12:01:44Z</time>
      </trkpt>
      <trkpt lat="45.25994" lon="5.39488">
        <ele>627.91</ele>
        <time>2016-09-20T12:01:56Z</time>
      </trkpt>
      <trkpt lat="45.25971" lon="5.3948">
        <ele>623.67</ele>
        <time>2016-09-20T12:02:20Z</time>
      </trkpt>
      <trkpt lat="45.25948" lon="5.3948">
        <ele>622</ele>
        <time>2016-09-20T12:02:49Z</time>
      </trkpt>
      <trkpt lat="45.25927" lon="5.39466">
        <ele>615.53</ele>
        <time>2016-09-20T12:03:19Z</time>
      </trkpt>
      <trkpt lat="45.25902" lon="5.39456">
        <ele>609.19</ele>
        <time>2016-09-20T12:04:10Z</time>
      </trkpt>
      <trkpt lat="45.25881" lon="5.39445">
        <ele>602.8</ele>
        <time>2016-09-20T12:04:38Z</time>
      </trkpt>
      <trkpt lat="45.25894" lon="5.39418">
        <ele>594.04</ele>
        <time>2016-09-20T12:06:08Z</time>
      </trkpt>
      <trkpt lat="45.25913" lon="5.39397">
        <ele>588.31</ele>
        <time>2016-09-20T12:06:14Z</time>
      </trkpt>
      <trkpt lat="45.25901" lon="5.39364">
        <ele>574.68</ele>
        <time>2016-09-20T12:07:40Z</time>
      </trkpt>
      <trkpt lat="45.25879" lon="5.39358">
        <ele>572.19</ele>
        <time>2016-09-20T12:07:53Z</time>
      </trkpt>
      <trkpt lat="45.25858" lon="5.39344">
        <ele>568.57</ele>
        <time>2016-09-20T12:08:23Z</time>
      </trkpt>
      <trkpt lat="45.25839" lon="5.39326">
        <ele>563.91</ele>
        <time>2016-09-20T12:08:50Z</time>
      </trkpt>
      <trkpt lat="45.25814" lon="5.39324">
        <ele>563.23</ele>
        <time>2016-09-20T12:09:17Z</time>
      </trkpt>
      <trkpt lat="45.25793" lon="5.39312">
        <ele>560.04</ele>
        <time>2016-09-20T12:09:32Z</time>
      </trkpt>
      <trkpt lat="45.2577" lon="5.39307">
        <ele>558.21</ele>
        <time>2016-09-20T12:10:00Z</time>
      </trkpt>
      <trkpt lat="45.25748" lon="5.39311">
        <ele>556.44</ele>
        <time>2016-09-20T12:10:23Z</time>
      </trkpt>
      <trkpt lat="45.25728" lon="5.39325">
        <ele>553.66</ele>
        <time>2016-09-20T12:10:50Z</time>
      </trkpt>
      <trkpt lat="45.2571" lon="5.39348">
        <ele>551.61</ele>
        <time>2016-09-20T12:11:18Z</time>
      </trkpt>
      <trkpt lat="45.25697" lon="5.39376">
        <ele>550.67</ele>
        <time>2016-09-20T12:11:40Z</time>
      </trkpt>
      <trkpt lat="45.25686" lon="5.39404">
        <ele>551.17</ele>
        <time>2016-09-20T12:12:44Z</time>
      </trkpt>
      <trkpt lat="45.25676" lon="5.39433">
        <ele>552.01</ele>
        <time>2016-09-20T12:12:59Z</time>
      </trkpt>
      <trkpt lat="45.25664" lon="5.39462">
        <ele>552.88</ele>
        <time>2016-09-20T12:13:25Z</time>
      </trkpt>
      <trkpt lat="45.25654" lon="5.39493">
        <ele>553.22</ele>
        <time>2016-09-20T12:13:49Z</time>
      </trkpt>
      <trkpt lat="45.2565" lon="5.39526">
        <ele>553.52</ele>
        <time>2016-09-20T12:14:18Z</time>
      </trkpt>
      <trkpt lat="45.25649" lon="5.39559">
        <ele>553.36</ele>
        <time>2016-09-20T12:14:40Z</time>
      </trkpt>
      <trkpt lat="45.25658" lon="5.39588">
        <ele>555.58</ele>
        <time>2016-09-20T12:15:19Z</time>
      </trkpt>
      <trkpt lat="45.25657" lon="5.3962">
        <ele>552.43</ele>
        <time>2016-09-20T12:15:40Z</time>
      </trkpt>
      <trkpt lat="45.25666" lon="5.3965">
        <ele>552.06</ele>
        <time>2016-09-20T12:16:00Z</time>
      </trkpt>
      <trkpt lat="45.25678" lon="5.39678">
        <ele>551.8</ele>
        <time>2016-09-20T12:16:23Z</time>
      </trkpt>
      <trkpt lat="45.25694" lon="5.39702">
        <ele>551.4</ele>
        <time>2016-09-20T12:16:44Z</time>
      </trkpt>
      <trkpt lat="45.25709" lon="5.39728">
        <ele>549.96</ele>
        <time>2016-09-20T12:17:08Z</time>
      </trkpt>
      <trkpt lat="45.25719" lon="5.39759">
        <ele>547.39</ele>
        <time>2016-09-20T12:17:32Z</time>
      </trkpt>
      <trkpt lat="45.25729" lon="5.39789">
        <ele>547.32</ele>
        <time>2016-09-20T12:18:12Z</time>
      </trkpt>
      <trkpt lat="45.25728" lon="5.39821">
        <ele>545.6</ele>
        <time>2016-09-20T12:18:39Z</time>
      </trkpt>
      <trkpt lat="45.25727" lon="5.39853">
        <ele>541.66</ele>
        <time>2016-09-20T12:19:03Z</time>
      </trkpt>
      <trkpt lat="45.25741" lon="5.39878">
        <ele>540.28</ele>
        <time>2016-09-20T12:19:35Z</time>
      </trkpt>
      <trkpt lat="45.25763" lon="5.39887">
        <ele>540.31</ele>
        <time>2016-09-20T12:19:56Z</time>
      </trkpt>
      <trkpt lat="45.25787" lon="5.39885">
        <ele>541.01</ele>
        <time>2016-09-20T12:20:18Z</time>
      </trkpt>
      <trkpt lat="45.25807" lon="5.399">
        <ele>536.31</ele>
        <time>2016-09-20T12:20:42Z</time>
      </trkpt>
      <trkpt lat="45.2583" lon="5.39899">
        <ele>535.61</ele>
        <time>2016-09-20T12:21:00Z</time>
      </trkpt>
      <trkpt lat="45.25852" lon="5.39904">
        <ele>533.53</ele>
        <time>2016-09-20T12:21:28Z</time>
      </trkpt>
      <trkpt lat="45.25875" lon="5.39896">
        <ele>535.63</ele>
        <time>2016-09-20T12:21:50Z</time>
      </trkpt>
      <trkpt lat="45.25898" lon="5.39893">
        <ele>535.49</ele>
        <time>2016-09-20T12:22:15Z</time>
      </trkpt>
      <trkpt lat="45.25894" lon="5.39926">
        <ele>524.88</ele>
        <time>2016-09-20T12:22:53Z</time>
      </trkpt>
      <trkpt lat="45.25871" lon="5.3994">
        <ele>519.79</ele>
        <time>2016-09-20T12:23:21Z</time>
      </trkpt>
      <trkpt lat="45.25849" lon="5.3995">
        <ele>516.99</ele>
        <time>2016-09-20T12:23:41Z</time>
      </trkpt>
      <trkpt lat="45.25831" lon="5.39973">
        <ele>509.33</ele>
        <time>2016-09-20T12:24:21Z</time>
      </trkpt>
      <trkpt lat="45.25807" lon="5.39989">
        <ele>507.67</ele>
        <time>2016-09-20T12:25:00Z</time>
      </trkpt>
      <trkpt lat="45.25789" lon="5.40009">
        <ele>504.31</ele>
        <time>2016-09-20T12:25:13Z</time>
      </trkpt>
      <trkpt lat="45.25765" lon="5.40015">
        <ele>506.06</ele>
        <time>2016-09-20T12:25:31Z</time>
      </trkpt>
      <trkpt lat="45.25745" lon="5.4003">
        <ele>502.41</ele>
        <time>2016-09-20T12:25:49Z</time>
      </trkpt>
      <trkpt lat="45.25723" lon="5.40041">
        <ele>498.31</ele>
        <time>2016-09-20T12:26:15Z</time>
      </trkpt>
      <trkpt lat="45.25699" lon="5.40035">
        <ele>500.3</ele>
        <time>2016-09-20T12:26:40Z</time>
      </trkpt>
      <trkpt lat="45.25675" lon="5.40036">
        <ele>497.62</ele>
        <time>2016-09-20T12:27:03Z</time>
      </trkpt>
      <trkpt lat="45.25652" lon="5.40047">
        <ele>490.11</ele>
        <time>2016-09-20T12:27:25Z</time>
      </trkpt>
      <trkpt lat="45.2563" lon="5.4004">
        <ele>487.4</ele>
        <time>2016-09-20T12:27:45Z</time>
      </trkpt>
      <trkpt lat="45.25608" lon="5.40022">
        <ele>485.52</ele>
        <time>2016-09-20T12:28:10Z</time>
      </trkpt>
      <trkpt lat="45.256" lon="5.40052">
        <ele>475.65</ele>
        <time>2016-09-20T12:35:54Z</time>
      </trkpt>
      <trkpt lat="45.25617" lon="5.40075">
        <ele>473.56</ele>
        <time>2016-09-20T12:36:10Z</time>
      </trkpt>
      <trkpt lat="45.25635" lon="5.40094">
        <ele>470.86</ele>
        <time>2016-09-20T12:36:29Z</time>
      </trkpt>
      <trkpt lat="45.25657" lon="5.40103">
        <ele>470.38</ele>
        <time>2016-09-20T12:36:45Z</time>
      </trkpt>
      <trkpt lat="45.25677" lon="5.4012">
        <ele>465.29</ele>
        <time>2016-09-20T12:37:07Z</time>
      </trkpt>
      <trkpt lat="45.25701" lon="5.40127">
        <ele>463.07</ele>
        <time>2016-09-20T12:37:29Z</time>
      </trkpt>
      <trkpt lat="45.25724" lon="5.40131">
        <ele>461.85</ele>
        <time>2016-09-20T12:37:46Z</time>
      </trkpt>
      <trkpt lat="45.25746" lon="5.40135">
        <ele>460.68</ele>
        <time>2016-09-20T12:38:04Z</time>
      </trkpt>
      <trkpt lat="45.25768" lon="5.40149">
        <ele>456.85</ele>
        <time>2016-09-20T12:38:24Z</time>
      </trkpt>
      <trkpt lat="45.25751" lon="5.40176">
        <ele>450.54</ele>
        <time>2016-09-20T12:39:23Z</time>
      </trkpt>
      <trkpt lat="45.25731" lon="5.4019">
        <ele>447.46</ele>
        <time>2016-09-20T12:39:34Z</time>
      </trkpt>
      <trkpt lat="45.25709" lon="5.40201">
        <ele>445.5</ele>
        <time>2016-09-20T12:39:52Z</time>
      </trkpt>
      <trkpt lat="45.25731" lon="5.40215">
        <ele>445.8</ele>
        <time>2016-09-20T12:40:46Z</time>
      </trkpt>
      <trkpt lat="45.25754" lon="5.4022">
        <ele>447.66</ele>
        <time>2016-09-20T12:41:12Z</time>
      </trkpt>
      <trkpt lat="45.25771" lon="5.40242">
        <ele>450.2</ele>
        <time>2016-09-20T12:41:37Z</time>
      </trkpt>
      <trkpt lat="45.25791" lon="5.40259">
        <ele>452.99</ele>
        <time>2016-09-20T12:42:00Z</time>
      </trkpt>
      <trkpt lat="45.25807" lon="5.40284">
        <ele>452.85</ele>
        <time>2016-09-20T12:42:29Z</time>
      </trkpt>
      <trkpt lat="45.25824" lon="5.40306">
        <ele>451.22</ele>
        <time>2016-09-20T12:42:56Z</time>
      </trkpt>
      <trkpt lat="45.25843" lon="5.40324">
        <ele>451.43</ele>
        <time>2016-09-20T12:43:14Z</time>
      </trkpt>
      <trkpt lat="45.25859" lon="5.40348">
        <ele>454.33</ele>
        <time>2016-09-20T12:43:38Z</time>
      </trkpt>
      <trkpt lat="45.25877" lon="5.40369">
        <ele>458.13</ele>
        <time>2016-09-20T12:43:57Z</time>
      </trkpt>
      <trkpt lat="45.25891" lon="5.40394">
        <ele>459.7</ele>
        <time>2016-09-20T12:44:12Z</time>
      </trkpt>
      <trkpt lat="45.2591" lon="5.40412">
        <ele>461.25</ele>
        <time>2016-09-20T12:44:38Z</time>
      </trkpt>
      <trkpt lat="45.25919" lon="5.40443">
        <ele>463.24</ele>
        <time>2016-09-20T12:45:02Z</time>
      </trkpt>
      <trkpt lat="45.25931" lon="5.40472">
        <ele>467.18</ele>
        <time>2016-09-20T12:45:17Z</time>
      </trkpt>
      <trkpt lat="45.25949" lon="5.40493">
        <ele>470.38</ele>
        <time>2016-09-20T12:45:39Z</time>
      </trkpt>
      <trkpt lat="45.25952" lon="5.40525">
        <ele>472.07</ele>
        <time>2016-09-20T12:46:00Z</time>
      </trkpt>
      <trkpt lat="45.25964" lon="5.40554">
        <ele>474.19</ele>
        <time>2016-09-20T12:46:18Z</time>
      </trkpt>
      <trkpt lat="45.25978" lon="5.4058">
        <ele>476.07</ele>
        <time>2016-09-20T12:46:37Z</time>
      </trkpt>
      <trkpt lat="45.25981" lon="5.40612">
        <ele>476.12</ele>
        <time>2016-09-20T12:47:00Z</time>
      </trkpt>
      <trkpt lat="45.25979" lon="5.40644">
        <ele>475.72</ele>
        <time>2016-09-20T12:47:20Z</time>
      </trkpt>
      <trkpt lat="45.25995" lon="5.40665">
        <ele>476.23</ele>
        <time>2016-09-20T12:47:36Z</time>
      </trkpt>
      <trkpt lat="45.25975" lon="5.40683">
        <ele>476.38</ele>
        <time>2016-09-20T12:47:47Z</time>
      </trkpt>
      <trkpt lat="45.2599" lon="5.40712">
        <ele>476.22</ele>
        <time>2016-09-20T12:48:02Z</time>
      </trkpt>
      <trkpt lat="45.25987" lon="5.40745">
        <ele>477.05</ele>
        <time>2016-09-20T12:48:48Z</time>
      </trkpt>
      <trkpt lat="45.25992" lon="5.40777">
        <ele>478.21</ele>
        <time>2016-09-20T12:49:24Z</time>
      </trkpt>
      <trkpt lat="45.25975" lon="5.40799">
        <ele>480.36</ele>
        <time>2016-09-20T12:49:58Z</time>
      </trkpt>
      <trkpt lat="45.25975" lon="5.40831">
        <ele>481.8</ele>
        <time>2016-09-20T12:52:07Z</time>
      </trkpt>
      <trkpt lat="45.25968" lon="5.40862">
        <ele>484.66</ele>
        <time>2016-09-20T12:52:23Z</time>
      </trkpt>
      <trkpt lat="45.25947" lon="5.40879">
        <ele>493.15</ele>
        <time>2016-09-20T12:52:36Z</time>
      </trkpt>
      <trkpt lat="45.25928" lon="5.40855">
        <ele>497.63</ele>
        <time>2016-09-20T12:53:32Z</time>
      </trkpt>
      <trkpt lat="45.25909" lon="5.40837">
        <ele>501.55</ele>
        <time>2016-09-20T12:53:56Z</time>
      </trkpt>
      <trkpt lat="45.25898" lon="5.40809">
        <ele>504</ele>
        <time>2016-09-20T12:55:33Z</time>
      </trkpt>
      <trkpt lat="45.25894" lon="5.40776">
        <ele>505.38</ele>
        <time>2016-09-20T12:55:52Z</time>
      </trkpt>
      <trkpt lat="45.2588" lon="5.4075">
        <ele>510.56</ele>
        <time>2016-09-20T12:56:28Z</time>
      </trkpt>
      <trkpt lat="45.25857" lon="5.40741">
        <ele>519.76</ele>
        <time>2016-09-20T12:56:57Z</time>
      </trkpt>
      <trkpt lat="45.2584" lon="5.40718">
        <ele>523.82</ele>
        <time>2016-09-20T12:57:30Z</time>
      </trkpt>
      <trkpt lat="45.2582" lon="5.40704">
        <ele>527.75</ele>
        <time>2016-09-20T12:57:50Z</time>
      </trkpt>
      <trkpt lat="45.2581" lon="5.40675">
        <ele>526.09</ele>
        <time>2016-09-20T12:58:19Z</time>
      </trkpt>
      <trkpt lat="45.25795" lon="5.40651">
        <ele>527.04</ele>
        <time>2016-09-20T12:58:36Z</time>
      </trkpt>
      <trkpt lat="45.25781" lon="5.40623">
        <ele>528.47</ele>
        <time>2016-09-20T12:59:10Z</time>
      </trkpt>
      <trkpt lat="45.25768" lon="5.40597">
        <ele>529.97</ele>
        <time>2016-09-20T12:59:38Z</time>
      </trkpt>
      <trkpt lat="45.25743" lon="5.40596">
        <ele>534.38</ele>
        <time>2016-09-20T13:00:09Z</time>
      </trkpt>
      <trkpt lat="45.25722" lon="5.40609">
        <ele>537.39</ele>
        <time>2016-09-20T13:00:33Z</time>
      </trkpt>
      <trkpt lat="45.25706" lon="5.40631">
        <ele>540.13</ele>
        <time>2016-09-20T13:01:07Z</time>
      </trkpt>
      <trkpt lat="45.25696" lon="5.40661">
        <ele>543.35</ele>
        <time>2016-09-20T13:01:40Z</time>
      </trkpt>
      <trkpt lat="45.25679" lon="5.40683">
        <ele>546.23</ele>
        <time>2016-09-20T13:02:11Z</time>
      </trkpt>
      <trkpt lat="45.25665" lon="5.4071">
        <ele>547.95</ele>
        <time>2016-09-20T13:02:42Z</time>
      </trkpt>
      <trkpt lat="45.25646" lon="5.4073">
        <ele>548.67</ele>
        <time>2016-09-20T13:03:08Z</time>
      </trkpt>
      <trkpt lat="45.25633" lon="5.4076">
        <ele>550.76</ele>
        <time>2016-09-20T13:03:36Z</time>
      </trkpt>
      <trkpt lat="45.25619" lon="5.40786">
        <ele>553.16</ele>
        <time>2016-09-20T13:04:02Z</time>
      </trkpt>
      <trkpt lat="45.2563" lon="5.40815">
        <ele>556.26</ele>
        <time>2016-09-20T13:04:50Z</time>
      </trkpt>
      <trkpt lat="45.25618" lon="5.40833">
        <ele>558</ele>
        <time>2016-09-20T13:12:30Z</time>
      </trkpt>
    </trkseg>
  </trk>
</gpx>